Time;durP1;ratioP1;P1;durP2;ratioP2;P2;SDS_P1;SDS_P2;PMS_P1;PMS_P2;Temp;Humidity;BMP_temperature;BMP_pressure;BME280_temperature;BME280_humidity;BME280_pressure;Samples;Min_cycle;Max_cycle;Signal;HPM_P1;HPM_P2
2023/09/10 00:00:09;;;;;;;;;;;;;;;29.07;34.45;101040.25;5077206;28;1205;-28
2023/09/10 00:02:35;;;;;;;;;;;;;;;29.09;34.55;101036.28;5077625;28;1081;-34
2023/09/10 00:05:00;;;;;;;;;;;;;;;29.07;33.77;101040.25;5076709;28;1004;-29
2023/09/10 00:07:26;;;;;;;;;;;;;;;29.25;33.41;101045.25;5076165;28;1378;-27
2023/09/10 00:09:51;;;;;;;;;;;;;;;29.38;33.02;101041.03;5076415;28;1050;-28
2023/09/10 00:12:17;;;;;;;;;;;;;;;29.39;32.95;101035.41;5076920;28;1913;-29
2023/09/10 00:14:42;;;;;;;;;;;;;;;29.47;32.57;101039.84;5076726;28;1098;-31
2023/09/10 00:17:09;;;;;;;;;;;;;;;29.48;32.69;101043.41;5076880;28;1000;-30
2023/09/10 00:19:34;;;;;;;;;;;;;;;29.49;32.72;101045.94;5076451;28;998;-31
2023/09/10 00:22:00;;;;;;;;;;;;;;;29.51;32.53;101049.25;5077007;28;1185;-30
2023/09/10 00:24:25;;;;;;;;;;;;;;;29.56;32.72;101046.00;5075246;28;2096;-31
2023/09/10 00:26:51;;;;;;;;;;;;;;;29.55;32.59;101045.16;5064508;28;987;-31
2023/09/10 00:29:17;;;;;;;;;;;;;;;29.56;32.69;101051.44;5058096;28;1915;-29
2023/09/10 00:31:42;;;;;;;;;;;;;;;29.46;32.33;101041.72;5076373;28;893;-28
2023/09/10 00:34:08;;;;;;;;;;;;;;;29.61;32.11;101050.88;5063080;28;1985;-28
2023/09/10 00:36:34;;;;;;;;;;;;;;;29.57;32.15;101047.66;5058464;28;1023;-29
2023/09/10 00:38:59;;;;;;;;;;;;;;;29.52;32.13;101048.25;5076357;28;1019;-28
2023/09/10 00:41:25;;;;;;;;;;;;;;;29.79;31.24;101053.97;5076195;28;1051;-34
2023/09/10 00:43:51;;;;;;;;;;;;;;;30.01;31.85;101063.97;5075983;28;940;-28
2023/09/10 00:46:17;;;;;;;;;;;;;;;29.83;31.86;101057.13;5058285;28;1205;-30
2023/09/10 00:48:42;;;;;;;;;;;;;;;29.82;32.15;101060.88;5058606;28;1209;-30
2023/09/10 00:51:08;;;;;;;;;;;;;;;29.85;31.62;101059.63;5076270;28;1075;-27
2023/09/10 00:53:33;;;;;;;;;;;;;;;29.89;31.37;101056.38;5057550;28;2311;-31
2023/09/10 00:55:59;;;;;;;;;;;;;;;29.97;31.98;101065.38;5058028;28;907;-30
2023/09/10 00:58:24;;;;;;;;;;;;;;;30.14;30.71;101063.25;5058437;28;1035;-28
2023/09/10 01:00:50;;;;;;;;;;;;;;;29.96;31.24;101061.84;5075825;28;1182;-29
2023/09/10 01:03:15;;;;;;;;;;;;;;;29.89;33.08;101060.94;5041915;28;1597;-28
2023/09/10 01:05:41;;;;;;;;;;;;;;;30.20;31.15;101070.63;5057882;28;1930;-32
2023/09/10 01:08:07;;;;;;;;;;;;;;;29.89;32.67;101059.06;5075536;28;1003;-31
2023/09/10 01:10:42;;;;;;;;;;;;;;;30.00;33.03;101064.97;5058080;28;1260;-28
2023/09/10 01:13:23;;;;;;;;;;;;;;;29.98;32.40;101067.06;5057488;28;1902;-32
2023/09/10 01:15:51;;;;;;;;;;;;;;;30.01;32.13;101061.25;5058055;28;1227;-30
2023/09/10 01:18:17;;;;;;;;;;;;;;;30.12;32.99;101066.16;5075552;28;1043;-29
2023/09/10 01:20:42;;;;;;;;;;;;;;;30.00;33.20;101059.56;5056560;28;1189;-32
2023/09/10 01:23:08;;;;;;;;;;;;;;;30.06;31.68;101062.34;5076074;28;1018;-28
2023/09/10 01:25:33;;;;;;;;;;;;;;;30.14;32.66;101053.22;5051673;28;2550;-28
2023/09/10 01:28:04;;;;;;;;;;;;;;;30.03;32.15;101059.19;5075798;28;1201;-33
2023/09/10 01:30:33;;;;;;;;;;;;;;;30.21;31.98;101057.91;5075092;28;1066;-31
2023/09/10 01:33:17;;;;;;;;;;;;;;;30.14;33.39;101069.50;5062071;28;1898;-30
2023/09/10 01:35:53;;;;;;;;;;;;;;;30.15;32.29;101068.47;5060858;28;1135;-33
2023/09/10 01:38:24;;;;;;;;;;;;;;;30.15;32.85;101068.47;5076323;28;996;-29
2023/09/10 01:40:51;;;;;;;;;;;;;;;30.33;33.48;101061.72;5057968;28;1163;-30
2023/09/10 01:43:17;;;;;;;;;;;;;;;30.16;33.73;101072.84;5056790;28;903;-32
2023/09/10 01:45:42;;;;;;;;;;;;;;;30.24;33.35;101063.78;5075646;28;1078;-30
2023/09/10 01:48:08;;;;;;;;;;;;;;;30.17;33.72;101070.97;5057660;28;1099;-33
2023/09/10 01:50:34;;;;;;;;;;;;;;;30.25;33.76;101064.59;5075396;28;1075;-31
2023/09/10 01:53:00;;;;;;;;;;;;;;;30.28;33.45;101064.22;5075744;28;1902;-28
2023/09/10 01:55:26;;;;;;;;;;;;;;;30.19;32.76;101063.50;5073716;28;2506;-27
2023/09/10 01:57:54;;;;;;;;;;;;;;;30.26;33.16;101061.69;5057565;28;1276;-31
2023/09/10 02:00:20;;;;;;;;;;;;;;;30.34;33.38;101062.59;5057371;28;1186;-33
2023/09/10 02:02:46;;;;;;;;;;;;;;;30.24;33.29;101060.22;5057533;28;1091;-29
2023/09/10 02:05:11;;;;;;;;;;;;;;;30.25;32.87;101061.88;5075124;28;1114;-32
2023/09/10 02:07:37;;;;;;;;;;;;;;;30.11;33.38;101061.78;5075336;28;955;-30
2023/09/10 02:10:02;;;;;;;;;;;;;;;30.38;32.59;101063.88;5075363;28;1044;-30
2023/09/10 02:12:28;;;;;;;;;;;;;;;30.34;33.37;101055.28;5075310;28;1906;-30
2023/09/10 02:14:55;;;;;;;;;;;;;;;30.41;33.45;101063.47;5074925;28;999;-33
2023/09/10 02:17:20;;;;;;;;;;;;;;;30.18;33.88;101051.78;5057442;28;1330;-32
2023/09/10 02:19:46;;;;;;;;;;;;;;;30.35;33.41;101048.81;5075111;28;1020;-29
2023/09/10 02:22:11;;;;;;;;;;;;;;;30.30;33.32;101051.28;5057044;28;1015;-29
2023/09/10 02:24:37;;;;;;;;;;;;;;;30.27;32.20;101051.69;5065118;28;2587;-30
2023/09/10 02:27:03;;;;;;;;;;;;;;;29.59;34.22;101053.78;5055449;28;1056;-28
2023/09/10 02:29:28;;;;;;;;;;;;;;;29.37;34.79;101040.16;5053822;28;1291;-29
2023/09/10 02:31:54;;;;;;;;;;;;;;;29.38;35.10;101052.69;5067006;28;949;-28
2023/09/10 02:34:19;;;;;;;;;;;;;;;29.39;35.08;101056.22;5075371;28;1977;-29
2023/09/10 02:36:45;;;;;;;;;;;;;;;29.25;34.93;101056.06;5078857;28;1046;-30
2023/09/10 02:39:10;;;;;;;;;;;;;;;29.36;34.63;101060.19;5064107;28;1022;-31
2023/09/10 02:41:36;;;;;;;;;;;;;;;29.31;34.94;101059.91;5078903;28;1134;-30
2023/09/10 02:44:02;;;;;;;;;;;;;;;29.18;35.47;101061.41;5060035;28;1026;-29
2023/09/10 02:46:27;;;;;;;;;;;;;;;29.41;35.36;101065.84;5078589;28;1111;-31
2023/09/10 02:48:53;;;;;;;;;;;;;;;29.34;35.06;101056.81;5058586;28;1306;-28
2023/09/10 02:51:19;;;;;;;;;;;;;;;29.23;34.90;101057.31;5067091;28;996;-30
2023/09/10 02:53:44;;;;;;;;;;;;;;;29.23;35.75;101057.31;5059191;28;2593;-28
2023/09/10 02:56:10;;;;;;;;;;;;;;;29.41;36.42;101055.00;5059771;28;2185;-32
2023/09/10 02:58:35;;;;;;;;;;;;;;;29.46;36.57;101063.41;5078561;28;1098;-33
2023/09/10 03:01:03;;;;;;;;;;;;;;;29.46;36.81;101055.28;5060276;28;1297;-31
2023/09/10 03:03:28;;;;;;;;;;;;;;;29.33;37.38;101065.94;5062712;28;1051;-30
2023/09/10 03:05:54;;;;;;;;;;;;;;;29.36;37.20;101062.88;5048796;28;1028;-28
2023/09/10 03:08:19;;;;;;;;;;;;;;;29.38;37.08;101060.00;5059940;28;1337;-33
2023/09/10 03:10:45;;;;;;;;;;;;;;;29.40;37.09;101055.19;5060326;28;1110;-31
2023/09/10 03:13:10;;;;;;;;;;;;;;;29.34;37.62;101054.09;5059915;28;1913;-30
2023/09/10 03:15:36;;;;;;;;;;;;;;;29.12;37.98;101058.63;5060286;28;1198;-32
2023/09/10 03:18:02;;;;;;;;;;;;;;;29.38;37.35;101055.38;5057729;28;1892;-29
2023/09/10 03:20:27;;;;;;;;;;;;;;;29.47;36.92;101056.13;5071567;28;883;-30
2023/09/10 03:22:58;;;;;;;;;;;;;;;29.50;37.36;101050.31;5059875;28;1208;-31
2023/09/10 03:25:24;;;;;;;;;;;;;;;29.39;37.79;101056.22;5078029;28;2608;-30
2023/09/10 03:27:49;;;;;;;;;;;;;;;29.47;37.45;101058.81;5059819;28;1294;-33
2023/09/10 03:30:16;;;;;;;;;;;;;;;29.50;37.37;101058.44;5059763;28;1027;-29
2023/09/10 03:32:42;;;;;;;;;;;;;;;29.37;37.91;101059.13;5059291;28;1915;-28
2023/09/10 03:35:08;;;;;;;;;;;;;;;29.52;37.47;101064.50;5077657;28;1111;-28
2023/09/10 03:37:33;;;;;;;;;;;;;;;29.34;37.62;101064.94;5059156;28;1233;-32
2023/09/10 03:39:59;;;;;;;;;;;;;;;29.33;36.73;101065.94;5059678;28;1123;-30
2023/09/10 03:42:25;;;;;;;;;;;;;;;29.37;37.70;101069.97;5076810;28;1058;-31
2023/09/10 03:44:50;;;;;;;;;;;;;;;29.29;37.81;101064.66;5077232;28;880;-27
2023/09/10 03:47:16;;;;;;;;;;;;;;;29.24;36.82;101064.41;5077196;28;1122;-33
2023/09/10 03:49:41;;;;;;;;;;;;;;;26.91;36.22;101067.88;5059376;28;1043;-27
2023/09/10 03:52:14;;;;;;;;;;;;;;;26.94;33.95;101067.53;5059298;28;1209;-29
2023/09/10 03:54:39;;;;;;;;;;;;;;;26.68;33.03;101059.66;5077275;28;2551;-26
2023/09/10 03:57:06;;;;;;;;;;;;;;;26.68;33.96;101068.63;5058610;28;1141;-27
2023/09/10 03:59:32;;;;;;;;;;;;;;;27.37;33.42;101079.88;5059346;28;1181;-34
2023/09/10 04:01:59;;;;;;;;;;;;;;;27.88;32.23;101070.44;5059117;28;1140;-31
2023/09/10 04:04:25;;;;;;;;;;;;;;;27.84;32.88;101074.56;5049299;28;2169;-27
2023/09/10 04:06:51;;;;;;;;;;;;;;;27.45;32.71;101074.44;5073238;28;1017;-27
2023/09/10 04:09:17;;;;;;;;;;;;;;;27.44;32.34;101088.13;5076841;28;880;-30
2023/09/10 04:11:42;;;;;;;;;;;;;;;27.38;32.78;101089.66;5058902;28;1095;-27
2023/09/10 04:14:08;;;;;;;;;;;;;;;27.43;32.81;101089.97;5077048;28;1902;-28
2023/09/10 04:16:33;;;;;;;;;;;;;;;27.30;34.17;101095.09;5076085;28;1345;-30
2023/09/10 04:18:59;;;;;;;;;;;;;;;27.37;33.78;101094.22;5076691;28;1007;-27
2023/09/10 04:21:24;;;;;;;;;;;;;;;27.59;33.60;101089.03;5074847;28;1267;-29
2023/09/10 04:23:50;;;;;;;;;;;;;;;27.48;33.89;101092.13;5065103;28;2270;-28
2023/09/10 04:26:15;;;;;;;;;;;;;;;27.41;34.49;101088.47;5046292;28;1194;-28
2023/09/10 04:28:41;;;;;;;;;;;;;;;27.46;34.30;101083.38;5069260;28;1215;-28
2023/09/10 04:31:11;;;;;;;;;;;;;;;27.49;34.59;101083.03;5047421;28;1214;-26
2023/09/10 04:33:36;;;;;;;;;;;;;;;27.46;34.04;101086.09;5062273;28;1910;-26
2023/09/10 04:36:02;;;;;;;;;;;;;;;27.21;34.76;101081.63;5045808;28;1339;-27
2023/09/10 04:38:28;;;;;;;;;;;;;;;26.89;35.09;101088.81;5048608;28;1178;-29
2023/09/10 04:40:54;;;;;;;;;;;;;;;26.71;34.97;101084.44;5066017;28;1304;-26
2023/09/10 04:43:20;;;;;;;;;;;;;;;26.75;35.65;101093.91;5068347;28;1325;-25
2023/09/10 04:45:46;;;;;;;;;;;;;;;26.51;35.84;101083.97;5040778;28;2321;-30
2023/09/10 04:48:12;;;;;;;;;;;;;;;26.69;35.98;101086.50;5060042;28;1222;-26
2023/09/10 04:50:39;;;;;;;;;;;;;;;26.53;36.07;101088.22;5048821;28;1322;-28
2023/09/10 04:53:05;;;;;;;;;;;;;;;26.33;36.99;101086.88;5040440;28;1914;-26
2023/09/10 04:55:30;;;;;;;;;;;;;;;26.84;36.64;101091.19;5055377;28;1753;-29
2023/09/10 04:57:56;;;;;;;;;;;;;;;26.63;37.19;101088.03;5056503;28;1157;-28
2023/09/10 05:00:22;;;;;;;;;;;;;;;26.36;37.30;101087.38;5067250;28;1419;-26
2023/09/10 05:02:47;;;;;;;;;;;;;;;26.48;37.70;101093.28;5056217;28;1149;-28
2023/09/10 05:05:13;;;;;;;;;;;;;;;26.67;37.29;101090.38;5047594;28;1387;-26
2023/09/10 05:07:38;;;;;;;;;;;;;;;26.88;37.04;101095.22;5075461;28;1062;-26
2023/09/10 05:10:04;;;;;;;;;;;;;;;26.99;36.77;101097.53;5057837;28;1269;-27
2023/09/10 05:12:30;;;;;;;;;;;;;;;27.24;36.44;101083.16;5062246;28;1953;-26
2023/09/10 05:14:55;;;;;;;;;;;;;;;27.04;37.27;101094.38;5058467;28;1320;-28
2023/09/10 05:17:21;;;;;;;;;;;;;;;27.25;37.06;101092.91;5071691;28;1285;-26
2023/09/10 05:19:47;;;;;;;;;;;;;;;27.01;37.62;101100.06;5065266;28;1067;-28
2023/09/10 05:22:14;;;;;;;;;;;;;;;27.34;36.78;101091.84;5054449;28;1896;-29
2023/09/10 05:24:39;;;;;;;;;;;;;;;27.42;36.97;101093.69;5051439;28;2481;-29
2023/09/10 05:27:05;;;;;;;;;;;;;;;27.69;36.57;101093.41;5045430;28;1102;-27
2023/09/10 05:29:30;;;;;;;;;;;;;;;27.62;36.68;101096.81;5063530;28;1302;-29
2023/09/10 05:31:56;;;;;;;;;;;;;;;27.67;37.04;101095.41;5057387;28;1087;-29
2023/09/10 05:34:22;;;;;;;;;;;;;;;27.90;36.51;101100.00;5050195;28;1985;-26
2023/09/10 05:36:48;;;;;;;;;;;;;;;27.66;36.51;101107.25;5051907;28;1135;-29
2023/09/10 05:39:14;;;;;;;;;;;;;;;27.86;36.32;101097.66;5057022;28;1481;-26
2023/09/10 05:41:39;;;;;;;;;;;;;;;27.92;35.89;101106.94;5075707;28;1087;-27
2023/09/10 05:44:05;;;;;;;;;;;;;;;27.81;36.51;101107.34;5075070;28;1076;-26
2023/09/10 05:46:30;;;;;;;;;;;;;;;28.01;36.07;101107.69;5057819;28;1217;-31
2023/09/10 05:48:56;;;;;;;;;;;;;;;27.89;35.82;101107.31;5075603;28;1090;-25
2023/09/10 05:51:21;;;;;;;;;;;;;;;27.82;36.05;101103.63;5070877;28;1301;-26
2023/09/10 05:53:47;;;;;;;;;;;;;;;27.88;35.57;101113.72;5071365;28;2402;-29
2023/09/10 05:56:12;;;;;;;;;;;;;;;27.86;35.85;101115.78;5056792;28;1156;-27
2023/09/10 05:58:38;;;;;;;;;;;;;;;27.98;36.18;101113.47;5071726;28;1163;-27
2023/09/10 06:01:04;;;;;;;;;;;;;;;28.15;35.78;101130.44;5056025;28;1232;-26
2023/09/10 06:03:29;;;;;;;;;;;;;;;28.16;35.37;101126.69;5057183;28;1079;-29
2023/09/10 06:05:58;;;;;;;;;;;;;;;28.16;36.19;101125.88;5057060;28;1424;-27
2023/09/10 06:08:24;;;;;;;;;;;;;;;28.07;36.72;101130.50;5057830;28;1595;-32
2023/09/10 06:10:50;;;;;;;;;;;;;;;28.45;35.38;101132.41;5056083;28;1458;-30
2023/09/10 06:13:15;;;;;;;;;;;;;;;28.54;35.01;101134.03;5056389;28;1906;-31
2023/09/10 06:15:41;;;;;;;;;;;;;;;28.48;35.98;101135.59;5073618;28;1526;-32
2023/09/10 06:18:07;;;;;;;;;;;;;;;28.53;36.16;101139.63;5057807;28;1205;-29
2023/09/10 06:20:33;;;;;;;;;;;;;;;28.50;36.53;101142.69;5051514;28;1427;-30
2023/09/10 06:22:59;;;;;;;;;;;;;;;28.69;36.00;101138.63;5052518;28;1522;-30
2023/09/10 06:25:24;;;;;;;;;;;;;;;28.58;36.27;101139.91;5053949;28;1892;-32
2023/09/10 06:27:50;;;;;;;;;;;;;;;28.52;36.58;101155.03;5072150;28;1161;-28
2023/09/10 06:30:16;;;;;;;;;;;;;;;28.55;36.43;101141.13;5071444;28;1326;-28
2023/09/10 06:32:41;;;;;;;;;;;;;;;28.65;36.58;101146.25;5070904;28;1897;-31
2023/09/10 06:35:07;;;;;;;;;;;;;;;28.58;36.87;101134.47;5068338;28;1269;-30
2023/09/10 06:37:33;;;;;;;;;;;;;;;28.61;36.62;101147.69;5053398;28;1422;-29
2023/09/10 06:39:58;;;;;;;;;;;;;;;28.64;37.27;101154.56;5075516;28;1229;-28
2023/09/10 06:42:24;;;;;;;;;;;;;;;28.70;36.92;101140.28;5039028;28;1236;-30
2023/09/10 06:45:06;;;;;;;;;;;;;;;28.88;34.94;101144.53;5061543;28;1328;-33
2023/09/10 06:47:31;;;;;;;;;;;;;;;28.80;37.08;101140.03;5070150;28;1146;-29
2023/09/10 06:49:57;;;;;;;;;;;;;;;28.87;36.93;101151.81;5061762;28;1316;-31
2023/09/10 06:52:22;;;;;;;;;;;;;;;28.94;35.89;101151.91;5067250;28;1215;-29
2023/09/10 06:54:48;;;;;;;;;;;;;;;28.88;36.76;101156.19;5069608;28;2671;-31
2023/09/10 06:57:13;;;;;;;;;;;;;;;28.82;36.59;101152.38;5069725;28;1138;-30
2023/09/10 06:59:39;;;;;;;;;;;;;;;28.93;35.90;101155.63;5061659;28;1105;-28
2023/09/10 07:02:04;;;;;;;;;;;;;;;28.93;35.68;101152.91;5064949;28;1094;-29
2023/09/10 07:04:30;;;;;;;;;;;;;;;28.89;36.53;101154.31;5070232;28;1020;-32
2023/09/10 07:06:56;;;;;;;;;;;;;;;28.76;36.19;101158.50;5063554;28;1110;-28
2023/09/10 07:09:22;;;;;;;;;;;;;;;28.85;36.64;101153.84;5067089;28;1031;-29
2023/09/10 07:11:48;;;;;;;;;;;;;;;28.83;36.45;101150.47;5078541;28;1123;-29
2023/09/10 07:14:13;;;;;;;;;;;;;;;28.92;36.42;101153.94;5077933;28;1985;-31
2023/09/10 07:16:39;;;;;;;;;;;;;;;28.89;36.71;101160.59;5077522;28;1097;-31
2023/09/10 07:19:04;;;;;;;;;;;;;;;28.95;37.15;101164.41;5065691;28;1021;-31
2023/09/10 07:21:30;;;;;;;;;;;;;;;28.82;37.72;101168.63;5077195;28;932;-33
2023/09/10 07:23:55;;;;;;;;;;;;;;;28.62;38.03;101170.16;5073274;28;2554;-30
2023/09/10 07:26:21;;;;;;;;;;;;;;;28.61;38.13;101166.63;5059645;28;1042;-28
2023/09/10 07:28:46;;;;;;;;;;;;;;;28.64;38.45;101165.41;5077951;28;1119;-27
2023/09/10 07:31:12;;;;;;;;;;;;;;;28.57;38.34;101171.56;5077452;28;1109;-30
2023/09/10 07:33:37;;;;;;;;;;;;;;;28.79;37.94;101163.56;5077125;28;1905;-30
2023/09/10 07:36:03;;;;;;;;;;;;;;;28.70;38.12;101165.50;5076921;28;1301;-29
2023/09/10 07:38:29;;;;;;;;;;;;;;;28.83;37.96;101175.69;5077173;28;1257;-30
2023/09/10 07:40:54;;;;;;;;;;;;;;;28.81;38.15;101180.44;5077581;28;983;-31
2023/09/10 07:43:22;;;;;;;;;;;;;;;29.14;37.35;101176.59;5076847;28;1066;-30
2023/09/10 07:45:48;;;;;;;;;;;;;;;29.06;37.69;101176.69;5077214;28;1182;-31
2023/09/10 07:48:14;;;;;;;;;;;;;;;28.94;37.76;101179.00;5077461;28;1150;-27
2023/09/10 07:50:40;;;;;;;;;;;;;;;29.11;36.70;101170.72;5077003;28;1142;-30
2023/09/10 07:53:05;;;;;;;;;;;;;;;29.10;37.18;101175.28;5076662;28;1906;-32
2023/09/10 07:55:33;;;;;;;;;;;;;;;29.18;36.79;101175.19;5077710;28;2699;-27
2023/09/10 07:57:59;;;;;;;;;;;;;;;29.17;36.80;101169.97;5077034;28;1327;-29
2023/09/10 08:00:24;;;;;;;;;;;;;;;29.11;36.93;101176.13;5077064;28;1112;-26
2023/09/10 08:02:50;;;;;;;;;;;;;;;29.16;37.05;101185.38;5076841;28;1058;-29
2023/09/10 08:05:16;;;;;;;;;;;;;;;29.06;37.14;101185.66;5073401;28;1126;-29
2023/09/10 08:07:41;;;;;;;;;;;;;;;28.83;37.94;101188.38;5057486;28;1074;-30
2023/09/10 08:10:07;;;;;;;;;;;;;;;28.85;37.93;101184.50;5071212;28;1293;-28
2023/09/10 08:12:33;;;;;;;;;;;;;;;28.72;38.06;101192.41;5064191;28;1906;-31
2023/09/10 08:14:58;;;;;;;;;;;;;;;29.17;37.65;101200.63;5065494;28;1070;-29
2023/09/10 08:17:24;;;;;;;;;;;;;;;28.98;37.92;101199.28;5063199;28;1244;-30
2023/09/10 08:19:50;;;;;;;;;;;;;;;29.01;37.42;101193.47;5066680;28;1106;-26
2023/09/10 08:22:15;;;;;;;;;;;;;;;28.77;38.02;101194.53;5070681;28;1083;-29
2023/09/10 08:24:41;;;;;;;;;;;;;;;28.65;38.48;101189.56;5062085;28;2321;-31
2023/09/10 08:27:06;;;;;;;;;;;;;;;28.75;38.02;101192.03;5065996;28;1098;-29
2023/09/10 08:29:32;;;;;;;;;;;;;;;28.62;38.66;101189.09;5042645;28;1365;-28
2023/09/10 08:31:58;;;;;;;;;;;;;;;28.63;38.80;101185.38;5065276;28;1126;-27
2023/09/10 08:34:24;;;;;;;;;;;;;;;28.76;38.43;101190.16;5060230;28;1917;-31
2023/09/10 08:36:50;;;;;;;;;;;;;;;28.72;38.47;101186.97;5069941;28;1142;-29
2023/09/10 08:39:15;;;;;;;;;;;;;;;28.65;38.65;101184.16;5075704;28;1276;-27
2023/09/10 08:42:10;;;;;;;;;;;;;;;28.69;38.68;101169.25;5076090;28;1387;-28
2023/09/10 08:44:36;;;;;;;;;;;;;;;28.68;39.04;101182.94;5049994;28;1394;-26
2023/09/10 08:47:01;;;;;;;;;;;;;;;28.89;38.54;101184.97;5056534;28;1238;-29
2023/09/10 08:49:27;;;;;;;;;;;;;;;29.02;38.33;101181.63;5056902;28;1324;-28
2023/09/10 08:51:53;;;;;;;;;;;;;;;29.01;38.20;101185.34;5072898;28;1341;-29
2023/09/10 08:54:19;;;;;;;;;;;;;;;29.16;37.82;101181.84;5057544;28;1928;-30
2023/09/10 08:56:44;;;;;;;;;;;;;;;29.04;38.05;101182.31;5071831;28;1237;-31
2023/09/10 08:59:10;;;;;;;;;;;;;;;29.06;38.13;101184.81;5073430;28;1035;-28
2023/09/10 09:01:36;;;;;;;;;;;;;;;28.90;38.62;101188.50;5071262;28;1265;-30
2023/09/10 09:04:02;;;;;;;;;;;;;;;29.14;37.89;101183.88;5055711;28;1281;-27
2023/09/10 09:06:28;;;;;;;;;;;;;;;29.16;37.63;101193.50;5072908;28;1459;-30
2023/09/10 09:08:54;;;;;;;;;;;;;;;29.45;37.00;101188.25;5068419;28;1077;-28
2023/09/10 09:11:19;;;;;;;;;;;;;;;29.31;37.43;101196.22;5042808;28;1082;-31
2023/09/10 09:13:46;;;;;;;;;;;;;;;29.21;37.31;101193.78;5044444;28;2009;-29
2023/09/10 09:16:13;;;;;;;;;;;;;;;29.19;37.72;101195.84;5070936;28;1360;-32
2023/09/10 09:18:39;;;;;;;;;;;;;;;29.13;37.92;101198.47;5074283;28;1328;-30
2023/09/10 09:21:11;;;;;;;;;;;;;;;29.37;37.37;101201.91;5072440;28;1230;-29
2023/09/10 09:23:50;;;;;;;;;;;;;;;29.36;37.61;101194.81;5071689;28;1881;-27
2023/09/10 09:26:15;;;;;;;;;;;;;;;29.13;37.81;101191.16;5072788;28;1079;-33
2023/09/10 09:28:41;;;;;;;;;;;;;;;29.02;38.25;101187.06;5071179;28;1300;-29
2023/09/10 09:31:07;;;;;;;;;;;;;;;29.15;38.12;101199.09;5071878;28;1071;-29
2023/09/10 09:33:33;;;;;;;;;;;;;;;29.09;38.23;101200.69;5069889;28;1965;-31
2023/09/10 09:36:04;;;;;;;;;;;;;;;29.14;37.97;101184.75;5071047;28;1043;-32
2023/09/10 09:38:30;;;;;;;;;;;;;;;29.16;38.00;101207.03;5075397;28;1402;-28
2023/09/10 09:40:55;;;;;;;;;;;;;;;29.26;37.88;101201.34;5074207;28;1241;-28
2023/09/10 09:43:21;;;;;;;;;;;;;;;29.44;37.16;101194.72;5074948;28;1297;-30
2023/09/10 09:45:46;;;;;;;;;;;;;;;29.39;37.29;101189.88;5073156;28;1348;-30
2023/09/10 09:48:12;;;;;;;;;;;;;;;29.48;36.85;101195.19;5073781;28;1095;-30
2023/09/10 09:50:38;;;;;;;;;;;;;;;29.86;36.14;101186.94;5072819;28;1660;-31
2023/09/10 09:53:03;;;;;;;;;;;;;;;30.01;35.96;101192.28;5056061;28;1927;-35
2023/09/10 09:55:29;;;;;;;;;;;;;;;29.76;36.41;101176.34;5072646;28;1763;-27
2023/09/10 09:57:55;;;;;;;;;;;;;;;29.85;36.55;101181.66;5073110;28;1300;-29
2023/09/10 10:00:20;;;;;;;;;;;;;;;29.81;36.75;101190.19;5074762;28;1047;-29
2023/09/10 10:02:46;;;;;;;;;;;;;;;29.75;36.47;101180.13;5075336;28;1114;-30
2023/09/10 10:05:11;;;;;;;;;;;;;;;29.85;36.37;101178.94;5075579;28;1161;-30
2023/09/10 10:07:37;;;;;;;;;;;;;;;29.87;36.70;101187.75;5075606;28;1050;-30
2023/09/10 10:10:06;;;;;;;;;;;;;;;29.87;36.59;101182.31;5057208;28;1225;-27
2023/09/10 10:12:31;;;;;;;;;;;;;;;29.79;36.49;101178.72;5062985;28;1038;-28
2023/09/10 10:14:57;;;;;;;;;;;;;;;29.81;36.45;101181.22;5073863;28;1914;-28
2023/09/10 10:17:23;;;;;;;;;;;;;;;29.76;36.74;101173.66;5057505;28;1008;-28
2023/09/10 10:19:49;;;;;;;;;;;;;;;29.69;36.74;101180.88;5074868;28;1419;-32
2023/09/10 10:22:14;;;;;;;;;;;;;;;29.75;36.81;101184.69;5074864;28;1094;-28
2023/09/10 10:24:40;;;;;;;;;;;;;;;29.77;36.48;101179.91;5052488;28;2498;-29
2023/09/10 10:27:05;;;;;;;;;;;;;;;29.72;36.30;101179.66;5045135;28;1294;-27
2023/09/10 10:29:31;;;;;;;;;;;;;;;29.85;36.49;101168.97;5074244;28;1056;-29
2023/09/10 10:32:02;;;;;;;;;;;;;;;30.01;36.02;101175.19;5057303;28;1349;-30
2023/09/10 10:34:30;;;;;;;;;;;;;;;30.03;35.99;101184.78;5074677;28;1971;-28
2023/09/10 10:36:55;;;;;;;;;;;;;;;29.96;36.67;101186.63;5075021;28;980;-28
2023/09/10 10:39:23;;;;;;;;;;;;;;;30.04;36.09;101177.50;5075169;28;1181;-30
2023/09/10 10:41:50;;;;;;;;;;;;;;;30.17;35.78;101182.22;5075152;28;1058;-32
2023/09/10 10:44:24;;;;;;;;;;;;;;;29.97;36.22;101179.31;5075191;28;1030;-29
2023/09/10 10:47:00;;;;;;;;;;;;;;;30.01;36.59;101186.03;5056927;28;1075;-27
2023/09/10 10:49:25;;;;;;;;;;;;;;;29.93;36.03;101186.97;5056647;28;1555;-30
2023/09/10 10:51:51;;;;;;;;;;;;;;;30.01;35.81;101177.91;5057221;28;1127;-28
2023/09/10 10:54:17;;;;;;;;;;;;;;;29.98;35.98;101168.25;5047933;28;2534;-28
2023/09/10 10:56:42;;;;;;;;;;;;;;;29.80;35.62;101169.53;5064946;28;1038;-27
2023/09/10 10:59:08;;;;;;;;;;;;;;;29.81;35.35;101165.78;5046980;28;1131;-29
2023/09/10 11:01:33;;;;;;;;;;;;;;;29.84;35.40;101169.16;5060468;28;1239;-29
2023/09/10 11:04:16;;;;;;;;;;;;;;;30.01;34.79;101165.16;5064956;28;1003;-30
2023/09/10 11:07:02;;;;;;;;;;;;;;;29.86;35.09;101170.66;5078461;28;1177;-32
2023/09/10 11:09:33;;;;;;;;;;;;;;;29.69;35.69;101157.34;5078272;28;1662;-30
2023/09/10 11:11:59;;;;;;;;;;;;;;;29.83;35.59;101154.75;5076647;28;1038;-30
2023/09/10 11:14:24;;;;;;;;;;;;;;;29.83;35.55;101154.75;5040680;28;1958;-28
2023/09/10 11:16:50;;;;;;;;;;;;;;;29.95;35.44;101157.78;5077743;28;1039;-30
2023/09/10 11:19:35;;;;;;;;;;;;;;;30.03;35.60;101154.97;5059638;28;1167;-31
2023/09/10 11:22:01;;;;;;;;;;;;;;;30.08;35.03;101162.50;5078057;28;1035;-29
2023/09/10 11:24:29;;;;;;;;;;;;;;;30.07;35.06;101147.28;5071407;28;1846;-29
2023/09/10 11:27:13;;;;;;;;;;;;;;;30.03;35.13;101149.53;5050219;28;1179;-33
2023/09/10 11:29:39;;;;;;;;;;;;;;;30.03;35.21;101156.84;5076918;28;1191;-29
2023/09/10 11:32:04;;;;;;;;;;;;;;;30.13;35.00;101143.78;5078436;28;1180;-28
2023/09/10 11:34:32;;;;;;;;;;;;;;;30.21;34.91;101148.28;5059512;28;1913;-30
2023/09/10 11:37:02;;;;;;;;;;;;;;;30.17;35.00;101142.38;5076975;28;959;-30
2023/09/10 11:39:28;;;;;;;;;;;;;;;30.15;35.01;101147.16;5077416;28;1126;-28
2023/09/10 11:41:54;;;;;;;;;;;;;;;29.63;35.46;101071.31;5073007;28;1206;-31
2023/09/10 11:44:20;;;;;;;;;;;;;;;30.27;34.81;101136.66;5069728;28;1067;-30
2023/09/10 11:46:45;;;;;;;;;;;;;;;30.30;34.72;101136.25;5065716;28;1368;-30
2023/09/10 11:49:11;;;;;;;;;;;;;;;30.40;34.26;101133.19;5070724;28;1080;-30
2023/09/10 11:51:42;;;;;;;;;;;;;;;30.30;34.68;101147.09;5064982;28;1383;-30
2023/09/10 11:54:08;;;;;;;;;;;;;;;30.22;34.60;101130.97;5068670;28;2317;-28
2023/09/10 11:56:34;;;;;;;;;;;;;;;30.17;35.09;101134.22;5059428;28;1079;-28
2023/09/10 11:59:00;;;;;;;;;;;;;;;30.02;35.30;101134.31;5077056;28;1054;-28
2023/09/10 12:01:25;;;;;;;;;;;;;;;30.03;35.51;101135.16;5071364;28;1064;-33
2023/09/10 12:03:51;;;;;;;;;;;;;;;29.99;35.00;101134.69;5068828;28;1118;-30
2023/09/10 12:06:16;;;;;;;;;;;;;;;30.00;35.15;101130.94;5072065;28;1193;-28
2023/09/10 12:08:42;;;;;;;;;;;;;;;30.06;35.08;101113.06;5068339;28;1064;-28
2023/09/10 12:11:08;;;;;;;;;;;;;;;29.98;35.17;101126.75;5075991;28;1068;-29
2023/09/10 12:13:35;;;;;;;;;;;;;;;30.13;34.78;101132.09;5077000;28;1909;-29
2023/09/10 12:16:01;;;;;;;;;;;;;;;29.99;34.97;101129.28;5076405;28;1078;-28
2023/09/10 12:18:26;;;;;;;;;;;;;;;30.02;34.99;101134.31;5076396;28;1058;-27
2023/09/10 12:20:52;;;;;;;;;;;;;;;29.94;34.92;101129.84;5076067;28;1008;-28
2023/09/10 12:23:17;;;;;;;;;;;;;;;29.93;34.89;101127.31;5058852;28;1110;-29
2023/09/10 12:25:43;;;;;;;;;;;;;;;29.85;35.20;101131.00;5074895;28;2498;-28
2023/09/10 12:28:08;;;;;;;;;;;;;;;29.83;35.12;101135.75;5076722;28;1093;-28
2023/09/10 12:30:34;;;;;;;;;;;;;;;29.89;35.10;101137.72;5076889;28;1078;-29
2023/09/10 12:33:00;;;;;;;;;;;;;;;29.78;35.36;101135.53;5076653;28;1906;-29
2023/09/10 12:35:26;;;;;;;;;;;;;;;29.82;35.40;101137.66;5064646;28;1073;-33
2023/09/10 12:37:52;;;;;;;;;;;;;;;29.69;36.12;101132.94;5076402;28;1168;-29
2023/09/10 12:40:18;;;;;;;;;;;;;;;29.75;36.02;101125.03;5076605;28;1002;-29
2023/09/10 12:42:44;;;;;;;;;;;;;;;29.68;36.71;101133.94;5058971;28;1121;-27